sensor_id;sensor_type;location;lat;lon;timestamp;P1;durP1;ratioP1;P2;durP2;ratioP2
32906;SDS011;19259;51.590;5.320;2022-11-20T00:01:21;21.70;;;10.93;;
32906;SDS011;19259;51.590;5.320;2022-11-20T00:03:51;24.45;;;10.68;;
32906;SDS011;19259;51.590;5.320;2022-11-20T00:06:20;24.00;;;11.00;;
32906;SDS011;19259;51.590;5.320;2022-11-20T00:08:49;23.07;;;10.53;;
32906;SDS011;19259;51.590;5.320;2022-11-20T00:11:19;27.85;;;11.85;;
32906;SDS011;19259;51.590;5.320;2022-11-20T00:13:49;31.77;;;11.03;;
32906;SDS011;19259;51.590;5.320;2022-11-20T00:16:19;28.70;;;11.78;;
32906;SDS011;19259;51.590;5.320;2022-11-20T00:18:48;25.02;;;10.78;;
32906;SDS011;19259;51.590;5.320;2022-11-20T00:21:20;25.85;;;11.48;;
32906;SDS011;19259;51.590;5.320;2022-11-20T00:23:53;29.52;;;12.75;;
32906;SDS011;19259;51.590;5.320;2022-11-20T00:26:22;27.87;;;11.18;;
32906;SDS011;19259;51.590;5.320;2022-11-20T00:28:52;26.50;;;10.20;;
32906;SDS011;19259;51.590;5.320;2022-11-20T00:31:21;27.35;;;9.88;;
32906;SDS011;19259;51.590;5.320;2022-11-20T00:33:50;26.30;;;10.70;;
32906;SDS011;19259;51.590;5.320;2022-11-20T00:36:19;24.85;;;10.90;;
32906;SDS011;19259;51.590;5.320;2022-11-20T00:38:52;25.60;;;10.78;;
32906;SDS011;19259;51.590;5.320;2022-11-20T00:41:23;24.85;;;10.78;;
32906;SDS011;19259;51.590;5.320;2022-11-20T00:43:53;26.52;;;10.65;;
32906;SDS011;19259;51.590;5.320;2022-11-20T00:46:22;27.07;;;11.97;;
32906;SDS011;19259;51.590;5.320;2022-11-20T00:48:51;24.80;;;10.98;;
32906;SDS011;19259;51.590;5.320;2022-11-20T00:51:20;27.50;;;11.15;;
32906;SDS011;19259;51.590;5.320;2022-11-20T00:53:49;24.85;;;10.13;;
32906;SDS011;19259;51.590;5.320;2022-11-20T00:56:18;24.67;;;11.03;;
32906;SDS011;19259;51.590;5.320;2022-11-20T00:58:47;25.35;;;11.65;;
32906;SDS011;19259;51.590;5.320;2022-11-20T01:01:20;23.45;;;10.32;;
32906;SDS011;19259;51.590;5.320;2022-11-20T01:03:55;27.07;;;11.08;;
32906;SDS011;19259;51.590;5.320;2022-11-20T01:06:30;27.17;;;10.93;;
32906;SDS011;19259;51.590;5.320;2022-11-20T01:09:03;31.17;;;12.35;;
32906;SDS011;19259;51.590;5.320;2022-11-20T01:11:34;31.12;;;11.15;;
32906;SDS011;19259;51.590;5.320;2022-11-20T01:14:05;24.67;;;10.70;;
32906;SDS011;19259;51.590;5.320;2022-11-20T01:16:36;29.92;;;11.35;;
32906;SDS011;19259;51.590;5.320;2022-11-20T01:19:06;28.73;;;12.28;;
32906;SDS011;19259;51.590;5.320;2022-11-20T01:21:44;25.27;;;11.12;;
32906;SDS011;19259;51.590;5.320;2022-11-20T01:24:10;27.17;;;11.55;;
32906;SDS011;19259;51.590;5.320;2022-11-20T01:26:39;25.23;;;11.15;;
32906;SDS011;19259;51.590;5.320;2022-11-20T01:31:50;25.45;;;11.78;;
32906;SDS011;19259;51.590;5.320;2022-11-20T01:34:20;26.97;;;12.33;;
32906;SDS011;19259;51.590;5.320;2022-11-20T01:36:48;25.57;;;11.35;;
32906;SDS011;19259;51.590;5.320;2022-11-20T01:39:17;27.48;;;11.55;;
32906;SDS011;19259;51.590;5.320;2022-11-20T01:41:47;29.72;;;13.05;;
32906;SDS011;19259;51.590;5.320;2022-11-20T01:44:43;26.50;;;11.68;;
32906;SDS011;19259;51.590;5.320;2022-11-20T01:47:10;23.18;;;10.70;;
32906;SDS011;19259;51.590;5.320;2022-11-20T01:49:42;24.67;;;10.15;;
32906;SDS011;19259;51.590;5.320;2022-11-20T01:52:13;27.02;;;11.88;;
32906;SDS011;19259;51.590;5.320;2022-11-20T01:54:55;25.25;;;11.22;;
32906;SDS011;19259;51.590;5.320;2022-11-20T01:57:21;30.27;;;13.38;;
32906;SDS011;19259;51.590;5.320;2022-11-20T01:59:53;23.98;;;11.57;;
32906;SDS011;19259;51.590;5.320;2022-11-20T02:02:21;25.12;;;10.75;;
32906;SDS011;19259;51.590;5.320;2022-11-20T02:04:49;31.75;;;11.53;;
32906;SDS011;19259;51.590;5.320;2022-11-20T02:07:19;24.95;;;10.90;;
32906;SDS011;19259;51.590;5.320;2022-11-20T02:09:48;31.23;;;12.47;;
32906;SDS011;19259;51.590;5.320;2022-11-20T02:12:15;28.92;;;12.00;;
32906;SDS011;19259;51.590;5.320;2022-11-20T02:15:01;28.65;;;12.23;;
32906;SDS011;19259;51.590;5.320;2022-11-20T02:17:29;28.38;;;12.55;;
32906;SDS011;19259;51.590;5.320;2022-11-20T02:19:57;29.67;;;11.93;;
32906;SDS011;19259;51.590;5.320;2022-11-20T02:22:28;29.18;;;12.75;;
32906;SDS011;19259;51.590;5.320;2022-11-20T02:25:01;28.07;;;12.30;;
32906;SDS011;19259;51.590;5.320;2022-11-20T02:27:30;25.90;;;11.38;;
32906;SDS011;19259;51.590;5.320;2022-11-20T02:30:00;27.87;;;12.00;;
32906;SDS011;19259;51.590;5.320;2022-11-20T02:32:32;28.20;;;11.63;;
32906;SDS011;19259;51.590;5.320;2022-11-20T02:37:36;18.95;;;8.03;;
32906;SDS011;19259;51.590;5.320;2022-11-20T02:40:06;31.05;;;12.00;;
32906;SDS011;19259;51.590;5.320;2022-11-20T02:42:35;27.45;;;11.55;;
32906;SDS011;19259;51.590;5.320;2022-11-20T02:45:06;25.30;;;11.00;;
32906;SDS011;19259;51.590;5.320;2022-11-20T02:47:34;28.87;;;12.90;;
32906;SDS011;19259;51.590;5.320;2022-11-20T02:50:02;32.93;;;11.93;;
32906;SDS011;19259;51.590;5.320;2022-11-20T02:52:30;30.82;;;12.07;;
32906;SDS011;19259;51.590;5.320;2022-11-20T02:54:58;29.95;;;12.35;;
32906;SDS011;19259;51.590;5.320;2022-11-20T02:57:26;25.97;;;11.33;;
32906;SDS011;19259;51.590;5.320;2022-11-20T02:59:53;32.75;;;12.85;;
32906;SDS011;19259;51.590;5.320;2022-11-20T03:02:21;27.60;;;12.18;;
32906;SDS011;19259;51.590;5.320;2022-11-20T03:04:49;26.17;;;11.25;;
32906;SDS011;19259;51.590;5.320;2022-11-20T03:07:16;29.10;;;12.20;;
32906;SDS011;19259;51.590;5.320;2022-11-20T03:09:44;29.72;;;12.13;;
32906;SDS011;19259;51.590;5.320;2022-11-20T03:12:11;27.60;;;12.10;;
32906;SDS011;19259;51.590;5.320;2022-11-20T03:14:39;30.20;;;12.78;;
32906;SDS011;19259;51.590;5.320;2022-11-20T03:17:07;30.15;;;12.63;;
32906;SDS011;19259;51.590;5.320;2022-11-20T03:19:35;30.10;;;12.40;;
32906;SDS011;19259;51.590;5.320;2022-11-20T03:22:02;26.60;;;11.03;;
32906;SDS011;19259;51.590;5.320;2022-11-20T03:24:30;25.75;;;10.85;;
32906;SDS011;19259;51.590;5.320;2022-11-20T03:26:57;25.40;;;11.83;;
32906;SDS011;19259;51.590;5.320;2022-11-20T03:29:25;27.70;;;11.08;;
32906;SDS011;19259;51.590;5.320;2022-11-20T03:31:53;22.98;;;11.57;;
32906;SDS011;19259;51.590;5.320;2022-11-20T03:34:20;29.67;;;12.90;;
32906;SDS011;19259;51.590;5.320;2022-11-20T03:36:48;26.17;;;11.15;;
32906;SDS011;19259;51.590;5.320;2022-11-20T03:39:16;32.58;;;13.05;;
32906;SDS011;19259;51.590;5.320;2022-11-20T03:41:43;30.45;;;12.78;;
32906;SDS011;19259;51.590;5.320;2022-11-20T03:44:11;32.88;;;13.18;;
32906;SDS011;19259;51.590;5.320;2022-11-20T03:46:39;29.82;;;11.45;;
32906;SDS011;19259;51.590;5.320;2022-11-20T03:49:06;28.20;;;12.60;;
32906;SDS011;19259;51.590;5.320;2022-11-20T03:51:35;27.87;;;11.57;;
32906;SDS011;19259;51.590;5.320;2022-11-20T03:54:04;27.93;;;11.65;;
32906;SDS011;19259;51.590;5.320;2022-11-20T03:56:34;28.98;;;12.82;;
32906;SDS011;19259;51.590;5.320;2022-11-20T03:59:05;30.75;;;13.03;;
32906;SDS011;19259;51.590;5.320;2022-11-20T04:01:34;26.30;;;12.13;;
32906;SDS011;19259;51.590;5.320;2022-11-20T04:04:03;27.20;;;11.43;;
32906;SDS011;19259;51.590;5.320;2022-11-20T04:09:17;28.70;;;11.65;;
32906;SDS011;19259;51.590;5.320;2022-11-20T04:11:45;29.75;;;12.70;;
32906;SDS011;19259;51.590;5.320;2022-11-20T04:14:13;31.80;;;12.53;;
32906;SDS011;19259;51.590;5.320;2022-11-20T04:16:42;32.33;;;13.13;;
32906;SDS011;19259;51.590;5.320;2022-11-20T04:19:14;32.38;;;12.53;;
32906;SDS011;19259;51.590;5.320;2022-11-20T04:21:43;28.50;;;12.20;;
32906;SDS011;19259;51.590;5.320;2022-11-20T04:24:11;33.53;;;12.30;;
32906;SDS011;19259;51.590;5.320;2022-11-20T04:26:38;27.62;;;11.73;;
32906;SDS011;19259;51.590;5.320;2022-11-20T04:29:09;28.60;;;12.63;;
32906;SDS011;19259;51.590;5.320;2022-11-20T04:31:40;28.35;;;12.55;;
32906;SDS011;19259;51.590;5.320;2022-11-20T04:34:07;28.90;;;12.35;;
32906;SDS011;19259;51.590;5.320;2022-11-20T04:36:36;30.17;;;12.93;;
32906;SDS011;19259;51.590;5.320;2022-11-20T04:39:04;32.20;;;13.15;;
32906;SDS011;19259;51.590;5.320;2022-11-20T04:41:34;26.68;;;11.95;;
32906;SDS011;19259;51.590;5.320;2022-11-20T04:44:03;26.35;;;11.15;;
32906;SDS011;19259;51.590;5.320;2022-11-20T04:46:33;30.85;;;13.05;;
32906;SDS011;19259;51.590;5.320;2022-11-20T04:49:02;30.35;;;12.45;;
32906;SDS011;19259;51.590;5.320;2022-11-20T04:51:30;28.50;;;11.95;;
32906;SDS011;19259;51.590;5.320;2022-11-20T04:53:59;26.90;;;12.43;;
32906;SDS011;19259;51.590;5.320;2022-11-20T04:56:27;27.80;;;11.50;;
32906;SDS011;19259;51.590;5.320;2022-11-20T04:58:54;34.60;;;12.95;;
32906;SDS011;19259;51.590;5.320;2022-11-20T05:01:23;30.55;;;12.68;;
32906;SDS011;19259;51.590;5.320;2022-11-20T05:03:51;28.30;;;11.88;;
32906;SDS011;19259;51.590;5.320;2022-11-20T05:06:20;30.75;;;11.88;;
32906;SDS011;19259;51.590;5.320;2022-11-20T05:08:48;27.87;;;12.05;;
32906;SDS011;19259;51.590;5.320;2022-11-20T05:11:17;31.80;;;13.22;;
32906;SDS011;19259;51.590;5.320;2022-11-20T05:13:47;34.05;;;12.33;;
32906;SDS011;19259;51.590;5.320;2022-11-20T05:16:19;38.88;;;12.68;;
32906;SDS011;19259;51.590;5.320;2022-11-20T05:18:49;28.20;;;11.95;;
32906;SDS011;19259;51.590;5.320;2022-11-20T05:21:18;34.92;;;12.98;;
32906;SDS011;19259;51.590;5.320;2022-11-20T05:23:46;31.70;;;13.15;;
32906;SDS011;19259;51.590;5.320;2022-11-20T05:26:15;26.82;;;11.12;;
32906;SDS011;19259;51.590;5.320;2022-11-20T05:28:44;30.88;;;12.55;;
32906;SDS011;19259;51.590;5.320;2022-11-20T05:31:14;34.85;;;12.55;;
32906;SDS011;19259;51.590;5.320;2022-11-20T05:33:43;27.07;;;12.68;;
32906;SDS011;19259;51.590;5.320;2022-11-20T05:36:12;30.80;;;11.50;;
32906;SDS011;19259;51.590;5.320;2022-11-20T05:38:41;31.62;;;11.80;;
32906;SDS011;19259;51.590;5.320;2022-11-20T05:41:16;27.48;;;11.35;;
32906;SDS011;19259;51.590;5.320;2022-11-20T05:43:41;28.62;;;12.37;;
32906;SDS011;19259;51.590;5.320;2022-11-20T05:46:12;30.72;;;12.47;;
32906;SDS011;19259;51.590;5.320;2022-11-20T05:48:42;28.52;;;11.48;;
32906;SDS011;19259;51.590;5.320;2022-11-20T05:51:12;32.30;;;12.82;;
32906;SDS011;19259;51.590;5.320;2022-11-20T05:53:41;28.67;;;12.13;;
32906;SDS011;19259;51.590;5.320;2022-11-20T05:56:10;30.57;;;12.37;;
32906;SDS011;19259;51.590;5.320;2022-11-20T05:58:43;29.32;;;12.60;;
32906;SDS011;19259;51.590;5.320;2022-11-20T06:03:45;33.10;;;12.20;;
32906;SDS011;19259;51.590;5.320;2022-11-20T06:06:14;28.02;;;12.63;;
32906;SDS011;19259;51.590;5.320;2022-11-20T06:08:42;33.33;;;14.30;;
32906;SDS011;19259;51.590;5.320;2022-11-20T06:11:11;28.05;;;12.23;;
32906;SDS011;19259;51.590;5.320;2022-11-20T06:13:40;30.55;;;13.18;;
32906;SDS011;19259;51.590;5.320;2022-11-20T06:16:08;25.30;;;11.43;;
32906;SDS011;19259;51.590;5.320;2022-11-20T06:18:37;28.50;;;12.88;;
32906;SDS011;19259;51.590;5.320;2022-11-20T06:21:06;27.42;;;12.03;;
32906;SDS011;19259;51.590;5.320;2022-11-20T06:23:38;28.30;;;12.60;;
32906;SDS011;19259;51.590;5.320;2022-11-20T06:26:08;32.38;;;12.58;;
32906;SDS011;19259;51.590;5.320;2022-11-20T06:28:37;28.12;;;12.63;;
32906;SDS011;19259;51.590;5.320;2022-11-20T06:31:05;32.15;;;13.35;;
32906;SDS011;19259;51.590;5.320;2022-11-20T06:33:33;33.90;;;13.32;;
32906;SDS011;19259;51.590;5.320;2022-11-20T06:36:04;31.25;;;13.35;;
32906;SDS011;19259;51.590;5.320;2022-11-20T06:38:31;27.13;;;11.97;;
32906;SDS011;19259;51.590;5.320;2022-11-20T06:40:59;31.40;;;12.37;;
32906;SDS011;19259;51.590;5.320;2022-11-20T06:43:28;34.03;;;13.83;;
32906;SDS011;19259;51.590;5.320;2022-11-20T06:45:56;31.45;;;12.43;;
32906;SDS011;19259;51.590;5.320;2022-11-20T06:48:28;32.23;;;12.80;;
32906;SDS011;19259;51.590;5.320;2022-11-20T06:50:56;31.15;;;13.20;;
32906;SDS011;19259;51.590;5.320;2022-11-20T06:53:24;32.17;;;12.58;;
32906;SDS011;19259;51.590;5.320;2022-11-20T06:55:52;26.45;;;12.58;;
32906;SDS011;19259;51.590;5.320;2022-11-20T06:58:23;30.90;;;13.40;;
32906;SDS011;19259;51.590;5.320;2022-11-20T07:00:59;27.45;;;12.40;;
32906;SDS011;19259;51.590;5.320;2022-11-20T07:03:28;33.42;;;14.23;;
32906;SDS011;19259;51.590;5.320;2022-11-20T07:05:56;36.40;;;14.10;;
32906;SDS011;19259;51.590;5.320;2022-11-20T07:08:26;31.20;;;13.08;;
32906;SDS011;19259;51.590;5.320;2022-11-20T07:11:00;31.23;;;13.48;;
32906;SDS011;19259;51.590;5.320;2022-11-20T07:13:31;29.95;;;13.45;;
32906;SDS011;19259;51.590;5.320;2022-11-20T07:16:05;28.62;;;14.05;;
32906;SDS011;19259;51.590;5.320;2022-11-20T07:18:30;36.30;;;14.28;;
32906;SDS011;19259;51.590;5.320;2022-11-20T07:21:07;36.30;;;15.03;;
32906;SDS011;19259;51.590;5.320;2022-11-20T07:23:37;36.77;;;15.60;;
32906;SDS011;19259;51.590;5.320;2022-11-20T07:26:08;33.18;;;14.58;;
32906;SDS011;19259;51.590;5.320;2022-11-20T07:28:37;35.17;;;15.38;;
32906;SDS011;19259;51.590;5.320;2022-11-20T07:31:05;35.33;;;15.60;;
32906;SDS011;19259;51.590;5.320;2022-11-20T07:33:36;32.35;;;14.85;;
32906;SDS011;19259;51.590;5.320;2022-11-20T07:36:05;33.85;;;14.73;;
32906;SDS011;19259;51.590;5.320;2022-11-20T07:38:32;33.60;;;15.53;;
32906;SDS011;19259;51.590;5.320;2022-11-20T07:41:00;39.00;;;15.65;;
32906;SDS011;19259;51.590;5.320;2022-11-20T07:43:27;34.70;;;13.93;;
32906;SDS011;19259;51.590;5.320;2022-11-20T07:45:56;34.25;;;15.65;;
32906;SDS011;19259;51.590;5.320;2022-11-20T07:48:24;33.05;;;14.03;;
32906;SDS011;19259;51.590;5.320;2022-11-20T07:50:57;34.05;;;14.87;;
32906;SDS011;19259;51.590;5.320;2022-11-20T07:53:23;34.05;;;13.68;;
32906;SDS011;19259;51.590;5.320;2022-11-20T07:55:51;36.45;;;14.85;;
32906;SDS011;19259;51.590;5.320;2022-11-20T07:58:19;36.98;;;14.93;;
32906;SDS011;19259;51.590;5.320;2022-11-20T08:00:48;33.63;;;14.40;;
32906;SDS011;19259;51.590;5.320;2022-11-20T08:03:15;30.90;;;14.20;;
32906;SDS011;19259;51.590;5.320;2022-11-20T08:05:43;40.73;;;15.25;;
32906;SDS011;19259;51.590;5.320;2022-11-20T08:08:10;40.08;;;16.05;;
32906;SDS011;19259;51.590;5.320;2022-11-20T08:10:38;36.33;;;14.87;;
32906;SDS011;19259;51.590;5.320;2022-11-20T08:13:06;30.27;;;15.25;;
32906;SDS011;19259;51.590;5.320;2022-11-20T08:15:53;36.73;;;15.05;;
32906;SDS011;19259;51.590;5.320;2022-11-20T08:18:20;32.93;;;14.47;;
32906;SDS011;19259;51.590;5.320;2022-11-20T08:20:47;38.92;;;15.78;;
32906;SDS011;19259;51.590;5.320;2022-11-20T08:23:15;35.68;;;15.83;;
32906;SDS011;19259;51.590;5.320;2022-11-20T08:25:42;35.88;;;15.88;;
32906;SDS011;19259;51.590;5.320;2022-11-20T08:28:10;40.58;;;16.12;;
32906;SDS011;19259;51.590;5.320;2022-11-20T08:30:37;37.78;;;16.37;;
32906;SDS011;19259;51.590;5.320;2022-11-20T08:33:06;32.60;;;15.72;;
32906;SDS011;19259;51.590;5.320;2022-11-20T08:35:35;31.10;;;14.58;;
32906;SDS011;19259;51.590;5.320;2022-11-20T08:38:05;36.85;;;16.95;;
32906;SDS011;19259;51.590;5.320;2022-11-20T08:40:33;37.60;;;16.37;;
32906;SDS011;19259;51.590;5.320;2022-11-20T08:43:06;32.35;;;15.68;;
32906;SDS011;19259;51.590;5.320;2022-11-20T08:45:30;35.25;;;15.88;;
32906;SDS011;19259;51.590;5.320;2022-11-20T08:48:01;36.17;;;17.82;;
32906;SDS011;19259;51.590;5.320;2022-11-20T08:50:29;34.38;;;15.43;;
32906;SDS011;19259;51.590;5.320;2022-11-20T08:53:03;31.55;;;14.55;;
32906;SDS011;19259;51.590;5.320;2022-11-20T08:55:31;34.55;;;15.72;;
32906;SDS011;19259;51.590;5.320;2022-11-20T08:58:04;35.68;;;14.60;;
32906;SDS011;19259;51.590;5.320;2022-11-20T09:00:32;37.90;;;14.95;;
32906;SDS011;19259;51.590;5.320;2022-11-20T09:03:00;31.82;;;14.13;;
32906;SDS011;19259;51.590;5.320;2022-11-20T09:05:28;35.83;;;16.87;;
32906;SDS011;19259;51.590;5.320;2022-11-20T09:08:01;32.50;;;13.90;;
32906;SDS011;19259;51.590;5.320;2022-11-20T09:10:28;33.15;;;14.13;;
32906;SDS011;19259;51.590;5.320;2022-11-20T09:12:56;29.75;;;13.80;;
32906;SDS011;19259;51.590;5.320;2022-11-20T09:15:25;30.50;;;14.78;;
32906;SDS011;19259;51.590;5.320;2022-11-20T09:17:56;31.93;;;14.93;;
32906;SDS011;19259;51.590;5.320;2022-11-20T09:20:26;32.45;;;15.03;;
32906;SDS011;19259;51.590;5.320;2022-11-20T09:22:57;35.78;;;15.80;;
32906;SDS011;19259;51.590;5.320;2022-11-20T09:25:27;37.28;;;15.83;;
32906;SDS011;19259;51.590;5.320;2022-11-20T09:27:57;30.77;;;15.05;;
32906;SDS011;19259;51.590;5.320;2022-11-20T09:30:25;35.17;;;16.10;;
32906;SDS011;19259;51.590;5.320;2022-11-20T09:32:53;27.87;;;14.38;;
32906;SDS011;19259;51.590;5.320;2022-11-20T09:35:21;41.95;;;16.35;;
32906;SDS011;19259;51.590;5.320;2022-11-20T09:37:49;32.75;;;15.95;;
32906;SDS011;19259;51.590;5.320;2022-11-20T09:40:22;32.08;;;14.98;;
32906;SDS011;19259;51.590;5.320;2022-11-20T09:42:55;33.55;;;15.85;;
32906;SDS011;19259;51.590;5.320;2022-11-20T09:45:30;33.58;;;15.83;;
32906;SDS011;19259;51.590;5.320;2022-11-20T09:53:52;36.40;;;15.40;;
32906;SDS011;19259;51.590;5.320;2022-11-20T09:56:21;42.38;;;15.88;;
32906;SDS011;19259;51.590;5.320;2022-11-20T09:58:54;38.33;;;16.10;;
32906;SDS011;19259;51.590;5.320;2022-11-20T10:04:11;37.88;;;15.05;;
32906;SDS011;19259;51.590;5.320;2022-11-20T10:06:55;41.20;;;16.85;;
32906;SDS011;19259;51.590;5.320;2022-11-20T10:09:35;39.70;;;16.37;;
32906;SDS011;19259;51.590;5.320;2022-11-20T10:12:17;47.67;;;17.85;;
32906;SDS011;19259;51.590;5.320;2022-11-20T10:17:48;47.90;;;19.57;;
32906;SDS011;19259;51.590;5.320;2022-11-20T10:20:20;45.05;;;17.92;;
32906;SDS011;19259;51.590;5.320;2022-11-20T10:25:39;44.58;;;17.85;;
32906;SDS011;19259;51.590;5.320;2022-11-20T10:28:10;46.55;;;18.00;;
32906;SDS011;19259;51.590;5.320;2022-11-20T10:31:08;49.27;;;20.23;;
32906;SDS011;19259;51.590;5.320;2022-11-20T10:33:41;44.45;;;20.30;;
32906;SDS011;19259;51.590;5.320;2022-11-20T10:36:19;49.42;;;19.82;;
32906;SDS011;19259;51.590;5.320;2022-11-20T10:38:54;47.00;;;19.82;;
32906;SDS011;19259;51.590;5.320;2022-11-20T10:41:26;45.67;;;19.75;;
32906;SDS011;19259;51.590;5.320;2022-11-20T10:47:11;44.95;;;18.12;;
32906;SDS011;19259;51.590;5.320;2022-11-20T10:49:42;43.02;;;17.82;;
32906;SDS011;19259;51.590;5.320;2022-11-20T10:52:25;52.05;;;20.68;;
32906;SDS011;19259;51.590;5.320;2022-11-20T10:57:57;51.13;;;19.80;;
32906;SDS011;19259;51.590;5.320;2022-11-20T11:00:41;36.95;;;14.75;;
32906;SDS011;19259;51.590;5.320;2022-11-20T11:03:20;55.10;;;19.05;;
32906;SDS011;19259;51.590;5.320;2022-11-20T11:05:50;53.60;;;20.90;;
32906;SDS011;19259;51.590;5.320;2022-11-20T11:08:22;52.67;;;19.95;;
32906;SDS011;19259;51.590;5.320;2022-11-20T11:10:53;63.70;;;20.88;;
32906;SDS011;19259;51.590;5.320;2022-11-20T11:13:29;61.23;;;22.25;;
32906;SDS011;19259;51.590;5.320;2022-11-20T11:15:57;59.05;;;20.95;;
32906;SDS011;19259;51.590;5.320;2022-11-20T11:18:25;56.37;;;20.30;;
32906;SDS011;19259;51.590;5.320;2022-11-20T11:20:58;60.17;;;20.55;;
32906;SDS011;19259;51.590;5.320;2022-11-20T11:23:34;58.95;;;21.85;;
32906;SDS011;19259;51.590;5.320;2022-11-20T11:27:10;57.60;;;21.40;;
32906;SDS011;19259;51.590;5.320;2022-11-20T11:29:01;56.90;;;21.40;;
32906;SDS011;19259;51.590;5.320;2022-11-20T11:31:30;61.00;;;22.58;;
32906;SDS011;19259;51.590;5.320;2022-11-20T11:34:08;60.08;;;21.90;;
32906;SDS011;19259;51.590;5.320;2022-11-20T11:36:34;63.85;;;23.25;;
32906;SDS011;19259;51.590;5.320;2022-11-20T11:39:03;69.72;;;22.58;;
32906;SDS011;19259;51.590;5.320;2022-11-20T11:41:33;67.05;;;22.77;;
32906;SDS011;19259;51.590;5.320;2022-11-20T11:44:18;61.33;;;22.80;;
32906;SDS011;19259;51.590;5.320;2022-11-20T11:47:08;70.15;;;24.75;;
32906;SDS011;19259;51.590;5.320;2022-11-20T11:49:39;63.63;;;23.57;;
32906;SDS011;19259;51.590;5.320;2022-11-20T11:52:16;59.65;;;22.58;;
32906;SDS011;19259;51.590;5.320;2022-11-20T11:57:24;66.60;;;23.77;;
32906;SDS011;19259;51.590;5.320;2022-11-20T12:00:09;67.00;;;25.43;;
32906;SDS011;19259;51.590;5.320;2022-11-20T12:14:15;71.60;;;26.17;;
32906;SDS011;19259;51.590;5.320;2022-11-20T12:16:50;65.30;;;24.50;;
32906;SDS011;19259;51.590;5.320;2022-11-20T12:19:19;68.95;;;26.37;;
32906;SDS011;19259;51.590;5.320;2022-11-20T12:21:59;64.05;;;25.45;;
32906;SDS011;19259;51.590;5.320;2022-11-20T12:29:55;68.10;;;25.20;;
32906;SDS011;19259;51.590;5.320;2022-11-20T12:32:28;71.40;;;25.08;;
32906;SDS011;19259;51.590;5.320;2022-11-20T12:37:33;72.47;;;27.95;;
32906;SDS011;19259;51.590;5.320;2022-11-20T12:40:20;69.65;;;25.57;;
32906;SDS011;19259;51.590;5.320;2022-11-20T12:43:10;68.52;;;26.40;;
32906;SDS011;19259;51.590;5.320;2022-11-20T12:48:51;78.72;;;27.77;;
32906;SDS011;19259;51.590;5.320;2022-11-20T12:56:57;77.70;;;27.25;;
32906;SDS011;19259;51.590;5.320;2022-11-20T13:02:37;70.65;;;25.70;;
32906;SDS011;19259;51.590;5.320;2022-11-20T13:07:37;72.65;;;28.55;;
32906;SDS011;19259;51.590;5.320;2022-11-20T13:10:05;72.03;;;27.17;;
32906;SDS011;19259;51.590;5.320;2022-11-20T13:12:36;77.82;;;27.77;;
32906;SDS011;19259;51.590;5.320;2022-11-20T13:20:15;66.72;;;24.37;;
32906;SDS011;19259;51.590;5.320;2022-11-20T13:22:45;75.15;;;25.60;;
32906;SDS011;19259;51.590;5.320;2022-11-20T13:25:27;65.37;;;25.72;;
32906;SDS011;19259;51.590;5.320;2022-11-20T13:28:03;72.27;;;26.75;;
32906;SDS011;19259;51.590;5.320;2022-11-20T13:30:27;77.92;;;27.25;;
32906;SDS011;19259;51.590;5.320;2022-11-20T13:36:00;71.80;;;25.62;;
32906;SDS011;19259;51.590;5.320;2022-11-20T13:41:32;75.40;;;26.50;;
32906;SDS011;19259;51.590;5.320;2022-11-20T13:46:44;72.62;;;27.05;;
32906;SDS011;19259;51.590;5.320;2022-11-20T13:54:47;75.72;;;27.07;;
32906;SDS011;19259;51.590;5.320;2022-11-20T14:00:11;72.82;;;28.50;;
32906;SDS011;19259;51.590;5.320;2022-11-20T14:02:40;65.80;;;25.25;;
32906;SDS011;19259;51.590;5.320;2022-11-20T14:05:17;65.05;;;25.32;;
32906;SDS011;19259;51.590;5.320;2022-11-20T14:10:25;64.27;;;25.30;;
32906;SDS011;19259;51.590;5.320;2022-11-20T14:12:53;71.12;;;25.52;;
32906;SDS011;19259;51.590;5.320;2022-11-20T14:15:26;73.87;;;26.23;;
32906;SDS011;19259;51.590;5.320;2022-11-20T14:17:58;74.45;;;27.58;;
32906;SDS011;19259;51.590;5.320;2022-11-20T14:20:27;85.55;;;28.73;;
32906;SDS011;19259;51.590;5.320;2022-11-20T14:22:57;75.22;;;28.23;;
32906;SDS011;19259;51.590;5.320;2022-11-20T14:25:25;72.00;;;27.42;;
32906;SDS011;19259;51.590;5.320;2022-11-20T14:27:53;77.17;;;28.10;;
32906;SDS011;19259;51.590;5.320;2022-11-20T14:30:23;71.62;;;25.60;;
32906;SDS011;19259;51.590;5.320;2022-11-20T14:32:53;73.78;;;27.27;;
32906;SDS011;19259;51.590;5.320;2022-11-20T14:35:27;71.22;;;26.33;;
32906;SDS011;19259;51.590;5.320;2022-11-20T14:37:57;68.28;;;25.68;;
32906;SDS011;19259;51.590;5.320;2022-11-20T14:40:29;76.65;;;27.95;;
32906;SDS011;19259;51.590;5.320;2022-11-20T14:43:00;75.97;;;27.30;;
32906;SDS011;19259;51.590;5.320;2022-11-20T14:45:30;78.85;;;28.05;;
32906;SDS011;19259;51.590;5.320;2022-11-20T14:47:58;73.83;;;26.97;;
32906;SDS011;19259;51.590;5.320;2022-11-20T14:50:28;78.22;;;27.10;;
32906;SDS011;19259;51.590;5.320;2022-11-20T14:52:59;76.12;;;27.17;;
32906;SDS011;19259;51.590;5.320;2022-11-20T14:55:35;78.52;;;27.93;;
32906;SDS011;19259;51.590;5.320;2022-11-20T14:58:24;74.17;;;27.73;;
32906;SDS011;19259;51.590;5.320;2022-11-20T15:03:33;66.30;;;26.20;;
32906;SDS011;19259;51.590;5.320;2022-11-20T15:06:05;79.95;;;27.50;;
32906;SDS011;19259;51.590;5.320;2022-11-20T15:08:35;79.25;;;31.90;;
32906;SDS011;19259;51.590;5.320;2022-11-20T15:11:02;84.22;;;31.17;;
32906;SDS011;19259;51.590;5.320;2022-11-20T15:13:32;82.08;;;31.73;;
32906;SDS011;19259;51.590;5.320;2022-11-20T15:16:03;82.40;;;31.52;;
32906;SDS011;19259;51.590;5.320;2022-11-20T15:18:37;76.50;;;29.75;;
32906;SDS011;19259;51.590;5.320;2022-11-20T15:21:13;73.15;;;30.92;;
32906;SDS011;19259;51.590;5.320;2022-11-20T15:23:42;85.90;;;31.00;;
32906;SDS011;19259;51.590;5.320;2022-11-20T15:26:10;80.72;;;32.58;;
32906;SDS011;19259;51.590;5.320;2022-11-20T15:28:41;80.12;;;29.07;;
32906;SDS011;19259;51.590;5.320;2022-11-20T15:31:14;76.92;;;28.25;;
32906;SDS011;19259;51.590;5.320;2022-11-20T15:33:44;82.17;;;30.40;;
32906;SDS011;19259;51.590;5.320;2022-11-20T15:36:11;77.60;;;28.90;;
32906;SDS011;19259;51.590;5.320;2022-11-20T15:38:39;163.45;;;59.08;;
32906;SDS011;19259;51.590;5.320;2022-11-20T15:41:07;118.80;;;46.42;;
32906;SDS011;19259;51.590;5.320;2022-11-20T15:43:36;104.53;;;39.58;;
32906;SDS011;19259;51.590;5.320;2022-11-20T15:46:05;88.27;;;34.83;;
32906;SDS011;19259;51.590;5.320;2022-11-20T15:48:36;102.15;;;36.85;;
32906;SDS011;19259;51.590;5.320;2022-11-20T15:54:05;77.47;;;31.02;;
32906;SDS011;19259;51.590;5.320;2022-11-20T15:56:37;91.75;;;35.03;;
32906;SDS011;19259;51.590;5.320;2022-11-20T15:59:05;91.32;;;38.33;;
32906;SDS011;19259;51.590;5.320;2022-11-20T16:01:32;122.30;;;54.95;;
32906;SDS011;19259;51.590;5.320;2022-11-20T16:04:00;77.05;;;30.72;;
32906;SDS011;19259;51.590;5.320;2022-11-20T16:06:27;79.85;;;29.32;;
32906;SDS011;19259;51.590;5.320;2022-11-20T16:08:55;96.53;;;36.95;;
32906;SDS011;19259;51.590;5.320;2022-11-20T16:11:22;89.42;;;36.70;;
32906;SDS011;19259;51.590;5.320;2022-11-20T16:13:50;78.75;;;32.93;;
32906;SDS011;19259;51.590;5.320;2022-11-20T16:16:36;68.33;;;30.23;;
32906;SDS011;19259;51.590;5.320;2022-11-20T16:19:08;77.22;;;30.37;;